sensor_id;sensor_type;location;lat;lon;timestamp;P1;durP1;ratioP1;P2;durP2;ratioP2
12567;SDS011;6349;50.904;6.136;2023-02-01T00:01:30;8.67;;;3.33;;
12567;SDS011;6349;50.904;6.136;2023-02-01T00:03:31;7.33;;;3.40;;
12567;SDS011;6349;50.904;6.136;2023-02-01T00:05:33;7.80;;;3.23;;
12567;SDS011;6349;50.904;6.136;2023-02-01T00:07:35;7.03;;;3.20;;
12567;SDS011;6349;50.904;6.136;2023-02-01T00:09:37;7.47;;;3.17;;
12567;SDS011;6349;50.904;6.136;2023-02-01T00:11:38;5.13;;;2.80;;
12567;SDS011;6349;50.904;6.136;2023-02-01T00:13:40;9.70;;;3.40;;
12567;SDS011;6349;50.904;6.136;2023-02-01T00:15:42;7.87;;;3.07;;
12567;SDS011;6349;50.904;6.136;2023-02-01T00:17:43;4.77;;;2.90;;
12567;SDS011;6349;50.904;6.136;2023-02-01T00:19:45;9.70;;;3.33;;
12567;SDS011;6349;50.904;6.136;2023-02-01T00:21:47;6.93;;;3.30;;
12567;SDS011;6349;50.904;6.136;2023-02-01T00:23:48;6.20;;;2.97;;
12567;SDS011;6349;50.904;6.136;2023-02-01T00:25:50;6.27;;;3.20;;
12567;SDS011;6349;50.904;6.136;2023-02-01T00:27:52;8.30;;;3.43;;
12567;SDS011;6349;50.904;6.136;2023-02-01T00:29:54;8.23;;;3.17;;
12567;SDS011;6349;50.904;6.136;2023-02-01T00:31:56;6.70;;;3.40;;
12567;SDS011;6349;50.904;6.136;2023-02-01T00:33:58;8.67;;;3.93;;
12567;SDS011;6349;50.904;6.136;2023-02-01T00:36:00;7.40;;;3.33;;
12567;SDS011;6349;50.904;6.136;2023-02-01T00:38:04;7.43;;;3.13;;
12567;SDS011;6349;50.904;6.136;2023-02-01T00:40:06;7.60;;;3.57;;
12567;SDS011;6349;50.904;6.136;2023-02-01T00:42:08;7.87;;;3.83;;
12567;SDS011;6349;50.904;6.136;2023-02-01T00:44:10;7.67;;;4.57;;
12567;SDS011;6349;50.904;6.136;2023-02-01T00:46:13;6.90;;;4.60;;
12567;SDS011;6349;50.904;6.136;2023-02-01T00:48:16;8.43;;;4.77;;
12567;SDS011;6349;50.904;6.136;2023-02-01T00:50:18;7.63;;;4.87;;
12567;SDS011;6349;50.904;6.136;2023-02-01T00:52:20;7.83;;;5.00;;
12567;SDS011;6349;50.904;6.136;2023-02-01T00:54:21;9.57;;;5.30;;
12567;SDS011;6349;50.904;6.136;2023-02-01T00:56:23;9.47;;;5.90;;
12567;SDS011;6349;50.904;6.136;2023-02-01T00:58:25;11.43;;;6.17;;
12567;SDS011;6349;50.904;6.136;2023-02-01T01:00:27;10.43;;;5.93;;
12567;SDS011;6349;50.904;6.136;2023-02-01T01:02:29;11.00;;;5.73;;
12567;SDS011;6349;50.904;6.136;2023-02-01T01:04:31;11.17;;;6.30;;
12567;SDS011;6349;50.904;6.136;2023-02-01T01:06:33;9.87;;;5.53;;
12567;SDS011;6349;50.904;6.136;2023-02-01T01:08:36;9.03;;;5.87;;
12567;SDS011;6349;50.904;6.136;2023-02-01T01:10:38;9.87;;;6.03;;
12567;SDS011;6349;50.904;6.136;2023-02-01T01:12:40;10.47;;;5.97;;
12567;SDS011;6349;50.904;6.136;2023-02-01T01:14:42;9.37;;;6.10;;
12567;SDS011;6349;50.904;6.136;2023-02-01T01:16:45;9.80;;;5.97;;
12567;SDS011;6349;50.904;6.136;2023-02-01T01:18:47;10.50;;;5.70;;
12567;SDS011;6349;50.904;6.136;2023-02-01T01:20:51;12.30;;;5.93;;
12567;SDS011;6349;50.904;6.136;2023-02-01T01:22:54;8.90;;;5.70;;
12567;SDS011;6349;50.904;6.136;2023-02-01T01:24:56;12.17;;;6.03;;
12567;SDS011;6349;50.904;6.136;2023-02-01T01:26:58;10.47;;;6.60;;
12567;SDS011;6349;50.904;6.136;2023-02-01T01:28:59;12.10;;;6.40;;
12567;SDS011;6349;50.904;6.136;2023-02-01T01:31:01;10.20;;;6.43;;
12567;SDS011;6349;50.904;6.136;2023-02-01T01:33:08;9.83;;;6.00;;
12567;SDS011;6349;50.904;6.136;2023-02-01T01:35:10;9.30;;;5.93;;
12567;SDS011;6349;50.904;6.136;2023-02-01T01:37:12;9.90;;;5.80;;
12567;SDS011;6349;50.904;6.136;2023-02-01T01:39:14;9.67;;;6.43;;
12567;SDS011;6349;50.904;6.136;2023-02-01T01:41:16;10.83;;;6.00;;
12567;SDS011;6349;50.904;6.136;2023-02-01T01:43:44;9.43;;;6.03;;
12567;SDS011;6349;50.904;6.136;2023-02-01T01:45:55;9.87;;;6.13;;
12567;SDS011;6349;50.904;6.136;2023-02-01T01:48:05;8.87;;;5.70;;
12567;SDS011;6349;50.904;6.136;2023-02-01T01:50:14;11.20;;;5.73;;
12567;SDS011;6349;50.904;6.136;2023-02-01T01:52:24;11.67;;;5.43;;
12567;SDS011;6349;50.904;6.136;2023-02-01T01:54:29;9.17;;;5.53;;
12567;SDS011;6349;50.904;6.136;2023-02-01T01:56:34;10.30;;;5.43;;
12567;SDS011;6349;50.904;6.136;2023-02-01T01:58:36;8.60;;;5.20;;
12567;SDS011;6349;50.904;6.136;2023-02-01T02:00:38;11.07;;;5.47;;
12567;SDS011;6349;50.904;6.136;2023-02-01T02:02:41;8.73;;;4.93;;
12567;SDS011;6349;50.904;6.136;2023-02-01T02:04:47;10.03;;;5.77;;
12567;SDS011;6349;50.904;6.136;2023-02-01T02:07:05;7.10;;;5.07;;
12567;SDS011;6349;50.904;6.136;2023-02-01T02:09:12;7.83;;;4.97;;
12567;SDS011;6349;50.904;6.136;2023-02-01T02:11:16;10.33;;;4.87;;
12567;SDS011;6349;50.904;6.136;2023-02-01T02:13:17;9.30;;;5.00;;
12567;SDS011;6349;50.904;6.136;2023-02-01T02:15:19;11.57;;;5.30;;
12567;SDS011;6349;50.904;6.136;2023-02-01T02:17:55;9.47;;;4.47;;
12567;SDS011;6349;50.904;6.136;2023-02-01T02:22:35;9.40;;;4.93;;
12567;SDS011;6349;50.904;6.136;2023-02-01T02:30:16;9.77;;;5.13;;
12567;SDS011;6349;50.904;6.136;2023-02-01T02:32:53;10.43;;;5.37;;
12567;SDS011;6349;50.904;6.136;2023-02-01T02:35:12;10.57;;;5.13;;
12567;SDS011;6349;50.904;6.136;2023-02-01T02:37:45;11.43;;;5.80;;
12567;SDS011;6349;50.904;6.136;2023-02-01T02:39:58;11.37;;;5.37;;
12567;SDS011;6349;50.904;6.136;2023-02-01T02:42:26;10.83;;;5.47;;
12567;SDS011;6349;50.904;6.136;2023-02-01T02:45:19;7.53;;;4.80;;
12567;SDS011;6349;50.904;6.136;2023-02-01T02:48:02;11.20;;;5.67;;
12567;SDS011;6349;50.904;6.136;2023-02-01T02:50:21;12.27;;;5.60;;
12567;SDS011;6349;50.904;6.136;2023-02-01T02:52:57;9.97;;;5.07;;
12567;SDS011;6349;50.904;6.136;2023-02-01T02:55:24;11.77;;;5.33;;
12567;SDS011;6349;50.904;6.136;2023-02-01T02:57:38;11.40;;;4.83;;
12567;SDS011;6349;50.904;6.136;2023-02-01T03:00:04;9.37;;;4.73;;
12567;SDS011;6349;50.904;6.136;2023-02-01T03:02:30;10.77;;;4.93;;
12567;SDS011;6349;50.904;6.136;2023-02-01T03:04:55;8.10;;;4.40;;
12567;SDS011;6349;50.904;6.136;2023-02-01T03:06:57;7.33;;;4.77;;
12567;SDS011;6349;50.904;6.136;2023-02-01T03:08:58;9.67;;;4.30;;
12567;SDS011;6349;50.904;6.136;2023-02-01T03:11:06;11.57;;;4.00;;
12567;SDS011;6349;50.904;6.136;2023-02-01T03:13:45;10.47;;;4.53;;
12567;SDS011;6349;50.904;6.136;2023-02-01T03:15:50;10.83;;;4.43;;
12567;SDS011;6349;50.904;6.136;2023-02-01T03:18:04;11.93;;;4.63;;
12567;SDS011;6349;50.904;6.136;2023-02-01T03:20:12;9.97;;;4.37;;
12567;SDS011;6349;50.904;6.136;2023-02-01T03:22:18;11.90;;;5.00;;
12567;SDS011;6349;50.904;6.136;2023-02-01T03:24:25;10.10;;;4.37;;
12567;SDS011;6349;50.904;6.136;2023-02-01T03:26:49;12.10;;;4.67;;
12567;SDS011;6349;50.904;6.136;2023-02-01T03:28:57;10.43;;;4.53;;
12567;SDS011;6349;50.904;6.136;2023-02-01T03:31:06;8.47;;;4.80;;
12567;SDS011;6349;50.904;6.136;2023-02-01T03:33:09;10.20;;;4.57;;
12567;SDS011;6349;50.904;6.136;2023-02-01T03:35:24;13.13;;;5.40;;
12567;SDS011;6349;50.904;6.136;2023-02-01T03:37:48;9.87;;;4.50;;
12567;SDS011;6349;50.904;6.136;2023-02-01T03:39:53;10.20;;;4.20;;
12567;SDS011;6349;50.904;6.136;2023-02-01T03:42:03;11.57;;;4.63;;
12567;SDS011;6349;50.904;6.136;2023-02-01T03:44:24;12.37;;;4.23;;
12567;SDS011;6349;50.904;6.136;2023-02-01T03:46:32;9.80;;;4.23;;
12567;SDS011;6349;50.904;6.136;2023-02-01T03:48:37;9.40;;;4.43;;
12567;SDS011;6349;50.904;6.136;2023-02-01T03:50:43;10.90;;;4.27;;
12567;SDS011;6349;50.904;6.136;2023-02-01T03:52:51;13.47;;;3.70;;
12567;SDS011;6349;50.904;6.136;2023-02-01T03:54:58;7.67;;;3.57;;
12567;SDS011;6349;50.904;6.136;2023-02-01T03:57:01;11.43;;;4.00;;
12567;SDS011;6349;50.904;6.136;2023-02-01T03:59:06;11.07;;;3.90;;
12567;SDS011;6349;50.904;6.136;2023-02-01T04:01:09;11.90;;;3.67;;
12567;SDS011;6349;50.904;6.136;2023-02-01T04:03:11;9.83;;;3.30;;
12567;SDS011;6349;50.904;6.136;2023-02-01T04:05:12;9.50;;;3.00;;
12567;SDS011;6349;50.904;6.136;2023-02-01T04:07:15;7.63;;;3.23;;
12567;SDS011;6349;50.904;6.136;2023-02-01T04:09:18;9.57;;;3.30;;
12567;SDS011;6349;50.904;6.136;2023-02-01T04:11:18;9.07;;;3.00;;
12567;SDS011;6349;50.904;6.136;2023-02-01T04:13:20;9.67;;;3.67;;
12567;SDS011;6349;50.904;6.136;2023-02-01T04:15:22;6.93;;;3.07;;
12567;SDS011;6349;50.904;6.136;2023-02-01T04:17:24;7.73;;;3.07;;
12567;SDS011;6349;50.904;6.136;2023-02-01T04:19:25;9.37;;;3.23;;
12567;SDS011;6349;50.904;6.136;2023-02-01T04:21:27;7.30;;;2.40;;
12567;SDS011;6349;50.904;6.136;2023-02-01T04:23:29;8.77;;;3.43;;
12567;SDS011;6349;50.904;6.136;2023-02-01T04:25:33;9.87;;;2.90;;
12567;SDS011;6349;50.904;6.136;2023-02-01T04:27:35;9.37;;;3.43;;
12567;SDS011;6349;50.904;6.136;2023-02-01T04:29:35;7.33;;;2.93;;
12567;SDS011;6349;50.904;6.136;2023-02-01T04:31:38;8.10;;;3.07;;
12567;SDS011;6349;50.904;6.136;2023-02-01T04:33:40;7.43;;;2.73;;
12567;SDS011;6349;50.904;6.136;2023-02-01T04:35:42;8.60;;;2.90;;
12567;SDS011;6349;50.904;6.136;2023-02-01T04:37:43;7.47;;;2.60;;
12567;SDS011;6349;50.904;6.136;2023-02-01T04:39:45;7.50;;;2.67;;
12567;SDS011;6349;50.904;6.136;2023-02-01T04:41:47;10.73;;;2.90;;
12567;SDS011;6349;50.904;6.136;2023-02-01T04:43:50;5.37;;;2.53;;
12567;SDS011;6349;50.904;6.136;2023-02-01T04:45:53;7.17;;;2.47;;
12567;SDS011;6349;50.904;6.136;2023-02-01T04:47:54;8.73;;;2.70;;
12567;SDS011;6349;50.904;6.136;2023-02-01T04:49:58;9.47;;;2.83;;
12567;SDS011;6349;50.904;6.136;2023-02-01T04:51:58;9.57;;;2.83;;
12567;SDS011;6349;50.904;6.136;2023-02-01T04:54:01;9.23;;;3.17;;
12567;SDS011;6349;50.904;6.136;2023-02-01T04:56:04;12.00;;;3.10;;
12567;SDS011;6349;50.904;6.136;2023-02-01T04:58:09;8.10;;;2.40;;
12567;SDS011;6349;50.904;6.136;2023-02-01T05:00:11;9.57;;;2.50;;
12567;SDS011;6349;50.904;6.136;2023-02-01T05:02:14;7.70;;;2.47;;
12567;SDS011;6349;50.904;6.136;2023-02-01T05:04:14;9.63;;;2.80;;
12567;SDS011;6349;50.904;6.136;2023-02-01T05:06:17;8.63;;;2.43;;
12567;SDS011;6349;50.904;6.136;2023-02-01T05:08:18;8.73;;;2.40;;
12567;SDS011;6349;50.904;6.136;2023-02-01T05:10:22;7.53;;;2.43;;
12567;SDS011;6349;50.904;6.136;2023-02-01T05:12:24;7.17;;;2.33;;
12567;SDS011;6349;50.904;6.136;2023-02-01T05:14:47;9.17;;;2.53;;
12567;SDS011;6349;50.904;6.136;2023-02-01T05:16:50;6.77;;;2.27;;
12567;SDS011;6349;50.904;6.136;2023-02-01T05:18:51;8.07;;;2.40;;
12567;SDS011;6349;50.904;6.136;2023-02-01T05:20:53;8.80;;;2.50;;
12567;SDS011;6349;50.904;6.136;2023-02-01T05:22:55;6.27;;;2.43;;
12567;SDS011;6349;50.904;6.136;2023-02-01T05:24:55;9.30;;;2.73;;
12567;SDS011;6349;50.904;6.136;2023-02-01T05:26:57;9.83;;;3.10;;
12567;SDS011;6349;50.904;6.136;2023-02-01T05:28:59;7.37;;;2.20;;
12567;SDS011;6349;50.904;6.136;2023-02-01T05:31:02;8.23;;;2.53;;
12567;SDS011;6349;50.904;6.136;2023-02-01T05:33:11;6.47;;;2.37;;
12567;SDS011;6349;50.904;6.136;2023-02-01T05:35:13;9.53;;;2.60;;
12567;SDS011;6349;50.904;6.136;2023-02-01T05:37:14;8.00;;;2.23;;
12567;SDS011;6349;50.904;6.136;2023-02-01T05:39:16;9.57;;;2.67;;
12567;SDS011;6349;50.904;6.136;2023-02-01T05:41:18;7.77;;;2.40;;
12567;SDS011;6349;50.904;6.136;2023-02-01T05:43:20;8.43;;;2.10;;
12567;SDS011;6349;50.904;6.136;2023-02-01T05:45:22;10.37;;;2.50;;
12567;SDS011;6349;50.904;6.136;2023-02-01T05:47:22;11.03;;;2.70;;
12567;SDS011;6349;50.904;6.136;2023-02-01T05:49:24;6.70;;;2.47;;
12567;SDS011;6349;50.904;6.136;2023-02-01T05:51:26;9.83;;;2.50;;
12567;SDS011;6349;50.904;6.136;2023-02-01T05:53:27;6.30;;;2.23;;
12567;SDS011;6349;50.904;6.136;2023-02-01T05:55:29;9.60;;;2.27;;
12567;SDS011;6349;50.904;6.136;2023-02-01T05:57:32;8.07;;;2.10;;
12567;SDS011;6349;50.904;6.136;2023-02-01T05:59:33;6.77;;;2.40;;
12567;SDS011;6349;50.904;6.136;2023-02-01T06:01:42;7.27;;;2.40;;
12567;SDS011;6349;50.904;6.136;2023-02-01T06:03:44;6.07;;;2.60;;
12567;SDS011;6349;50.904;6.136;2023-02-01T06:05:47;6.07;;;2.50;;
12567;SDS011;6349;50.904;6.136;2023-02-01T06:07:49;5.83;;;2.17;;
12567;SDS011;6349;50.904;6.136;2023-02-01T06:09:52;6.77;;;2.70;;
12567;SDS011;6349;50.904;6.136;2023-02-01T06:11:52;11.83;;;2.67;;
12567;SDS011;6349;50.904;6.136;2023-02-01T06:13:55;7.70;;;2.97;;
12567;SDS011;6349;50.904;6.136;2023-02-01T06:15:56;7.33;;;2.30;;
12567;SDS011;6349;50.904;6.136;2023-02-01T06:17:58;8.90;;;2.37;;
12567;SDS011;6349;50.904;6.136;2023-02-01T06:19:59;7.13;;;2.30;;
12567;SDS011;6349;50.904;6.136;2023-02-01T06:22:01;6.20;;;2.90;;
12567;SDS011;6349;50.904;6.136;2023-02-01T06:24:07;6.40;;;2.43;;
12567;SDS011;6349;50.904;6.136;2023-02-01T06:26:09;13.80;;;3.17;;
12567;SDS011;6349;50.904;6.136;2023-02-01T06:28:12;11.50;;;2.90;;
12567;SDS011;6349;50.904;6.136;2023-02-01T06:30:14;10.37;;;2.53;;
12567;SDS011;6349;50.904;6.136;2023-02-01T06:32:16;6.33;;;2.60;;
12567;SDS011;6349;50.904;6.136;2023-02-01T06:34:18;11.60;;;2.60;;
12567;SDS011;6349;50.904;6.136;2023-02-01T06:36:19;11.07;;;2.50;;
12567;SDS011;6349;50.904;6.136;2023-02-01T06:38:22;7.47;;;2.50;;
12567;SDS011;6349;50.904;6.136;2023-02-01T06:40:24;7.60;;;2.03;;
12567;SDS011;6349;50.904;6.136;2023-02-01T06:42:25;5.67;;;2.37;;
12567;SDS011;6349;50.904;6.136;2023-02-01T06:44:27;8.97;;;2.93;;
12567;SDS011;6349;50.904;6.136;2023-02-01T06:46:29;8.63;;;2.73;;
12567;SDS011;6349;50.904;6.136;2023-02-01T06:48:31;7.83;;;2.23;;
12567;SDS011;6349;50.904;6.136;2023-02-01T06:50:33;7.50;;;2.33;;
12567;SDS011;6349;50.904;6.136;2023-02-01T06:52:35;8.23;;;2.43;;
12567;SDS011;6349;50.904;6.136;2023-02-01T06:54:38;8.00;;;2.40;;
12567;SDS011;6349;50.904;6.136;2023-02-01T06:56:42;8.87;;;2.47;;
12567;SDS011;6349;50.904;6.136;2023-02-01T06:58:43;10.57;;;2.60;;
12567;SDS011;6349;50.904;6.136;2023-02-01T07:00:44;10.20;;;2.83;;
12567;SDS011;6349;50.904;6.136;2023-02-01T07:02:45;8.93;;;2.60;;
12567;SDS011;6349;50.904;6.136;2023-02-01T07:04:46;11.63;;;2.70;;
12567;SDS011;6349;50.904;6.136;2023-02-01T07:06:47;11.63;;;2.53;;
12567;SDS011;6349;50.904;6.136;2023-02-01T07:08:47;7.50;;;2.40;;
12567;SDS011;6349;50.904;6.136;2023-02-01T07:10:48;4.57;;;2.20;;
12567;SDS011;6349;50.904;6.136;2023-02-01T07:12:49;9.07;;;2.63;;
12567;SDS011;6349;50.904;6.136;2023-02-01T07:14:49;8.37;;;2.33;;
12567;SDS011;6349;50.904;6.136;2023-02-01T07:16:50;9.33;;;3.23;;
12567;SDS011;6349;50.904;6.136;2023-02-01T07:18:51;6.43;;;2.07;;
12567;SDS011;6349;50.904;6.136;2023-02-01T07:20:52;8.53;;;2.97;;
12567;SDS011;6349;50.904;6.136;2023-02-01T07:22:55;8.80;;;2.47;;
12567;SDS011;6349;50.904;6.136;2023-02-01T07:24:56;11.73;;;2.90;;
12567;SDS011;6349;50.904;6.136;2023-02-01T07:26:57;10.10;;;2.70;;
12567;SDS011;6349;50.904;6.136;2023-02-01T07:28:57;8.33;;;2.33;;
12567;SDS011;6349;50.904;6.136;2023-02-01T07:31:02;9.03;;;2.80;;
12567;SDS011;6349;50.904;6.136;2023-02-01T07:33:04;9.70;;;2.33;;
12567;SDS011;6349;50.904;6.136;2023-02-01T07:35:06;7.83;;;2.43;;
12567;SDS011;6349;50.904;6.136;2023-02-01T07:37:07;10.63;;;2.80;;
12567;SDS011;6349;50.904;6.136;2023-02-01T07:39:08;8.87;;;2.67;;
12567;SDS011;6349;50.904;6.136;2023-02-01T07:41:08;8.97;;;2.90;;
12567;SDS011;6349;50.904;6.136;2023-02-01T07:43:10;6.40;;;2.20;;
12567;SDS011;6349;50.904;6.136;2023-02-01T07:45:10;8.77;;;2.63;;
12567;SDS011;6349;50.904;6.136;2023-02-01T07:47:13;7.57;;;2.57;;
12567;SDS011;6349;50.904;6.136;2023-02-01T07:49:13;6.70;;;2.53;;
12567;SDS011;6349;50.904;6.136;2023-02-01T07:51:15;10.87;;;2.90;;
12567;SDS011;6349;50.904;6.136;2023-02-01T07:53:16;9.20;;;2.77;;
12567;SDS011;6349;50.904;6.136;2023-02-01T07:55:17;8.47;;;2.23;;
12567;SDS011;6349;50.904;6.136;2023-02-01T07:57:18;6.47;;;2.13;;
12567;SDS011;6349;50.904;6.136;2023-02-01T07:59:19;6.73;;;2.37;;
12567;SDS011;6349;50.904;6.136;2023-02-01T08:01:21;7.50;;;2.23;;
12567;SDS011;6349;50.904;6.136;2023-02-01T08:03:24;6.67;;;2.33;;
12567;SDS011;6349;50.904;6.136;2023-02-01T08:05:25;7.00;;;2.43;;
12567;SDS011;6349;50.904;6.136;2023-02-01T08:07:26;6.70;;;2.17;;
12567;SDS011;6349;50.904;6.136;2023-02-01T08:09:26;11.00;;;2.70;;
12567;SDS011;6349;50.904;6.136;2023-02-01T08:11:27;9.83;;;2.80;;
12567;SDS011;6349;50.904;6.136;2023-02-01T08:13:28;8.70;;;2.10;;
12567;SDS011;6349;50.904;6.136;2023-02-01T08:15:29;9.40;;;2.70;;
12567;SDS011;6349;50.904;6.136;2023-02-01T08:17:30;9.60;;;3.10;;
12567;SDS011;6349;50.904;6.136;2023-02-01T08:19:30;9.60;;;2.83;;
12567;SDS011;6349;50.904;6.136;2023-02-01T08:21:31;10.57;;;2.30;;
12567;SDS011;6349;50.904;6.136;2023-02-01T08:23:39;7.70;;;2.50;;
12567;SDS011;6349;50.904;6.136;2023-02-01T08:25:41;8.93;;;2.80;;
12567;SDS011;6349;50.904;6.136;2023-02-01T08:27:41;7.13;;;2.47;;
12567;SDS011;6349;50.904;6.136;2023-02-01T08:29:42;7.23;;;2.53;;
12567;SDS011;6349;50.904;6.136;2023-02-01T08:31:42;8.33;;;2.50;;
12567;SDS011;6349;50.904;6.136;2023-02-01T08:33:44;8.17;;;2.83;;
12567;SDS011;6349;50.904;6.136;2023-02-01T08:35:49;9.00;;;2.73;;
12567;SDS011;6349;50.904;6.136;2023-02-01T08:37:50;7.87;;;2.57;;
12567;SDS011;6349;50.904;6.136;2023-02-01T08:39:51;9.87;;;2.53;;
12567;SDS011;6349;50.904;6.136;2023-02-01T08:41:51;8.23;;;2.53;;
12567;SDS011;6349;50.904;6.136;2023-02-01T08:44:12;7.43;;;2.57;;
12567;SDS011;6349;50.904;6.136;2023-02-01T08:46:13;8.43;;;2.50;;
12567;SDS011;6349;50.904;6.136;2023-02-01T08:48:14;8.37;;;3.30;;
12567;SDS011;6349;50.904;6.136;2023-02-01T08:50:15;8.27;;;2.37;;
12567;SDS011;6349;50.904;6.136;2023-02-01T08:52:16;8.93;;;2.90;;
12567;SDS011;6349;50.904;6.136;2023-02-01T08:54:17;7.50;;;2.40;;
12567;SDS011;6349;50.904;6.136;2023-02-01T08:56:18;8.50;;;2.47;;
12567;SDS011;6349;50.904;6.136;2023-02-01T08:58:20;11.17;;;3.00;;
12567;SDS011;6349;50.904;6.136;2023-02-01T09:00:21;10.77;;;2.87;;
12567;SDS011;6349;50.904;6.136;2023-02-01T09:02:22;7.90;;;2.67;;
12567;SDS011;6349;50.904;6.136;2023-02-01T09:04:23;8.17;;;2.60;;
12567;SDS011;6349;50.904;6.136;2023-02-01T09:06:23;11.00;;;2.80;;
12567;SDS011;6349;50.904;6.136;2023-02-01T09:08:24;7.80;;;2.33;;
12567;SDS011;6349;50.904;6.136;2023-02-01T09:10:25;7.50;;;2.60;;
12567;SDS011;6349;50.904;6.136;2023-02-01T09:12:27;9.70;;;2.80;;
12567;SDS011;6349;50.904;6.136;2023-02-01T09:14:30;7.93;;;2.50;;
12567;SDS011;6349;50.904;6.136;2023-02-01T09:16:30;7.27;;;2.57;;
12567;SDS011;6349;50.904;6.136;2023-02-01T09:18:31;8.80;;;2.40;;
12567;SDS011;6349;50.904;6.136;2023-02-01T09:20:32;4.97;;;2.40;;
12567;SDS011;6349;50.904;6.136;2023-02-01T09:22:32;12.37;;;2.97;;
12567;SDS011;6349;50.904;6.136;2023-02-01T09:24:33;9.00;;;2.83;;
12567;SDS011;6349;50.904;6.136;2023-02-01T09:26:33;7.40;;;2.23;;
12567;SDS011;6349;50.904;6.136;2023-02-01T09:28:34;10.97;;;2.93;;
12567;SDS011;6349;50.904;6.136;2023-02-01T09:30:35;6.87;;;2.43;;
12567;SDS011;6349;50.904;6.136;2023-02-01T09:32:37;7.47;;;2.73;;
12567;SDS011;6349;50.904;6.136;2023-02-01T09:34:37;6.10;;;2.50;;
12567;SDS011;6349;50.904;6.136;2023-02-01T09:36:38;8.50;;;2.20;;
12567;SDS011;6349;50.904;6.136;2023-02-01T09:38:38;9.13;;;2.50;;
12567;SDS011;6349;50.904;6.136;2023-02-01T09:40:41;9.17;;;2.83;;
12567;SDS011;6349;50.904;6.136;2023-02-01T09:42:56;9.50;;;2.63;;
12567;SDS011;6349;50.904;6.136;2023-02-01T09:45:17;9.87;;;2.70;;
12567;SDS011;6349;50.904;6.136;2023-02-01T09:47:25;10.87;;;2.87;;
12567;SDS011;6349;50.904;6.136;2023-02-01T09:49:29;8.73;;;2.63;;
12567;SDS011;6349;50.904;6.136;2023-02-01T09:51:34;9.60;;;2.70;;
12567;SDS011;6349;50.904;6.136;2023-02-01T09:53:38;7.23;;;2.70;;
12567;SDS011;6349;50.904;6.136;2023-02-01T09:55:45;7.70;;;2.37;;
12567;SDS011;6349;50.904;6.136;2023-02-01T09:57:53;7.60;;;2.23;;
12567;SDS011;6349;50.904;6.136;2023-02-01T10:00:03;10.10;;;2.43;;
12567;SDS011;6349;50.904;6.136;2023-02-01T10:02:17;7.20;;;2.30;;
12567;SDS011;6349;50.904;6.136;2023-02-01T10:04:27;8.67;;;2.73;;
12567;SDS011;6349;50.904;6.136;2023-02-01T10:12:00;10.20;;;2.67;;
12567;SDS011;6349;50.904;6.136;2023-02-01T10:16:43;7.27;;;2.53;;
12567;SDS011;6349;50.904;6.136;2023-02-01T10:21:19;8.73;;;2.63;;
12567;SDS011;6349;50.904;6.136;2023-02-01T10:23:45;6.93;;;2.53;;
12567;SDS011;6349;50.904;6.136;2023-02-01T10:26:01;10.40;;;3.07;;
12567;SDS011;6349;50.904;6.136;2023-02-01T10:28:33;10.77;;;3.03;;
12567;SDS011;6349;50.904;6.136;2023-02-01T10:30:39;6.77;;;2.63;;
12567;SDS011;6349;50.904;6.136;2023-02-01T10:32:47;10.13;;;3.00;;
12567;SDS011;6349;50.904;6.136;2023-02-01T10:35:02;12.70;;;2.90;;
12567;SDS011;6349;50.904;6.136;2023-02-01T10:37:30;8.77;;;2.67;;
12567;SDS011;6349;50.904;6.136;2023-02-01T10:39:36;9.47;;;2.70;;
12567;SDS011;6349;50.904;6.136;2023-02-01T10:41:39;11.73;;;2.80;;
12567;SDS011;6349;50.904;6.136;2023-02-01T10:43:42;6.53;;;2.63;;
12567;SDS011;6349;50.904;6.136;2023-02-01T10:45:45;8.80;;;2.70;;
12567;SDS011;6349;50.904;6.136;2023-02-01T10:47:48;11.57;;;2.83;;
12567;SDS011;6349;50.904;6.136;2023-02-01T10:49:54;10.47;;;2.70;;
12567;SDS011;6349;50.904;6.136;2023-02-01T10:52:31;8.90;;;2.93;;
12567;SDS011;6349;50.904;6.136;2023-02-01T10:54:40;7.27;;;2.90;;
12567;SDS011;6349;50.904;6.136;2023-02-01T10:56:43;10.13;;;3.00;;
12567;SDS011;6349;50.904;6.136;2023-02-01T10:58:46;9.90;;;2.90;;
12567;SDS011;6349;50.904;6.136;2023-02-01T11:00:52;10.17;;;2.83;;
12567;SDS011;6349;50.904;6.136;2023-02-01T11:02:56;8.73;;;2.70;;
12567;SDS011;6349;50.904;6.136;2023-02-01T11:04:58;7.53;;;2.77;;
12567;SDS011;6349;50.904;6.136;2023-02-01T11:07:06;11.60;;;3.23;;
12567;SDS011;6349;50.904;6.136;2023-02-01T11:09:27;8.20;;;3.00;;
12567;SDS011;6349;50.904;6.136;2023-02-01T11:11:28;7.57;;;2.53;;
12567;SDS011;6349;50.904;6.136;2023-02-01T11:13:30;6.70;;;2.77;;
12567;SDS011;6349;50.904;6.136;2023-02-01T11:15:33;6.30;;;2.43;;
12567;SDS011;6349;50.904;6.136;2023-02-01T11:17:35;8.97;;;3.10;;
12567;SDS011;6349;50.904;6.136;2023-02-01T11:19:42;6.03;;;2.70;;
12567;SDS011;6349;50.904;6.136;2023-02-01T11:21:48;7.27;;;2.60;;
12567;SDS011;6349;50.904;6.136;2023-02-01T11:23:51;7.43;;;2.53;;
12567;SDS011;6349;50.904;6.136;2023-02-01T11:25:53;10.07;;;2.93;;
12567;SDS011;6349;50.904;6.136;2023-02-01T11:27:56;6.37;;;2.60;;
12567;SDS011;6349;50.904;6.136;2023-02-01T11:29:58;6.67;;;2.10;;
12567;SDS011;6349;50.904;6.136;2023-02-01T11:32:01;7.67;;;2.93;;
12567;SDS011;6349;50.904;6.136;2023-02-01T11:34:07;8.67;;;2.47;;
12567;SDS011;6349;50.904;6.136;2023-02-01T11:36:15;6.33;;;2.13;;
12567;SDS011;6349;50.904;6.136;2023-02-01T11:38:28;7.67;;;2.37;;
12567;SDS011;6349;50.904;6.136;2023-02-01T11:40:35;7.77;;;2.47;;
12567;SDS011;6349;50.904;6.136;2023-02-01T11:42:37;9.77;;;2.53;;
12567;SDS011;6349;50.904;6.136;2023-02-01T11:45:29;6.47;;;2.70;;
12567;SDS011;6349;50.904;6.136;2023-02-01T11:47:29;7.80;;;2.83;;
12567;SDS011;6349;50.904;6.136;2023-02-01T11:49:38;7.03;;;2.40;;
12567;SDS011;6349;50.904;6.136;2023-02-01T11:56:19;9.60;;;2.53;;
12567;SDS011;6349;50.904;6.136;2023-02-01T12:13:56;6.20;;;2.20;;
12567;SDS011;6349;50.904;6.136;2023-02-01T12:16:26;8.53;;;2.17;;
12567;SDS011;6349;50.904;6.136;2023-02-01T12:18:41;8.17;;;2.57;;
12567;SDS011;6349;50.904;6.136;2023-02-01T12:20:58;7.27;;;2.10;;
12567;SDS011;6349;50.904;6.136;2023-02-01T12:23:14;6.80;;;2.33;;
12567;SDS011;6349;50.904;6.136;2023-02-01T12:25:46;7.43;;;2.23;;
12567;SDS011;6349;50.904;6.136;2023-02-01T12:28:18;9.53;;;2.70;;
12567;SDS011;6349;50.904;6.136;2023-02-01T12:30:56;6.97;;;2.53;;
12567;SDS011;6349;50.904;6.136;2023-02-01T12:33:25;8.17;;;2.17;;
12567;SDS011;6349;50.904;6.136;2023-02-01T12:38:14;7.00;;;2.40;;
12567;SDS011;6349;50.904;6.136;2023-02-01T12:43:19;8.07;;;2.43;;
12567;SDS011;6349;50.904;6.136;2023-02-01T12:45:46;7.73;;;2.70;;
12567;SDS011;6349;50.904;6.136;2023-02-01T12:47:57;6.77;;;2.20;;
12567;SDS011;6349;50.904;6.136;2023-02-01T12:50:16;8.67;;;2.30;;
12567;SDS011;6349;50.904;6.136;2023-02-01T12:52:35;4.53;;;2.00;;
12567;SDS011;6349;50.904;6.136;2023-02-01T12:54:59;6.30;;;2.27;;
12567;SDS011;6349;50.904;6.136;2023-02-01T12:57:14;4.87;;;2.07;;
12567;SDS011;6349;50.904;6.136;2023-02-01T12:59:27;6.17;;;1.80;;
12567;SDS011;6349;50.904;6.136;2023-02-01T13:01:39;8.17;;;2.10;;
12567;SDS011;6349;50.904;6.136;2023-02-01T13:04:15;7.63;;;2.10;;
12567;SDS011;6349;50.904;6.136;2023-02-01T13:06:38;10.50;;;2.33;;
12567;SDS011;6349;50.904;6.136;2023-02-01T13:09:02;5.33;;;2.30;;
12567;SDS011;6349;50.904;6.136;2023-02-01T13:11:28;4.67;;;2.63;;
12567;SDS011;6349;50.904;6.136;2023-02-01T13:13:39;6.33;;;2.10;;
12567;SDS011;6349;50.904;6.136;2023-02-01T13:15:49;5.07;;;1.93;;
12567;SDS011;6349;50.904;6.136;2023-02-01T13:18:15;7.97;;;2.17;;
12567;SDS011;6349;50.904;6.136;2023-02-01T13:20:27;5.20;;;2.17;;
12567;SDS011;6349;50.904;6.136;2023-02-01T13:22:35;7.17;;;2.03;;
12567;SDS011;6349;50.904;6.136;2023-02-01T13:24:50;6.63;;;1.63;;
12567;SDS011;6349;50.904;6.136;2023-02-01T13:26:59;6.57;;;1.97;;
12567;SDS011;6349;50.904;6.136;2023-02-01T13:29:02;4.83;;;1.90;;
12567;SDS011;6349;50.904;6.136;2023-02-01T13:41:15;8.13;;;2.03;;
12567;SDS011;6349;50.904;6.136;2023-02-01T13:43:28;6.00;;;1.90;;
12567;SDS011;6349;50.904;6.136;2023-02-01T13:45:33;8.43;;;2.30;;